sensor_id;sensor_type;location;lat;lon;timestamp;P1;durP1;ratioP1;P2;durP2;ratioP2
13040;SDS011;6587;42.728;23.288;2023-02-12T00:00:32;18.37;;;10.30;;
13040;SDS011;6587;42.728;23.288;2023-02-12T00:03:01;18.03;;;9.20;;
13040;SDS011;6587;42.728;23.288;2023-02-12T00:05:28;17.87;;;9.27;;
13040;SDS011;6587;42.728;23.288;2023-02-12T00:07:56;15.80;;;9.03;;
13040;SDS011;6587;42.728;23.288;2023-02-12T00:10:26;15.70;;;8.50;;
13040;SDS011;6587;42.728;23.288;2023-02-12T00:12:53;18.50;;;10.23;;
13040;SDS011;6587;42.728;23.288;2023-02-12T00:15:20;16.73;;;9.00;;
13040;SDS011;6587;42.728;23.288;2023-02-12T00:17:47;16.07;;;9.30;;
13040;SDS011;6587;42.728;23.288;2023-02-12T00:20:14;17.07;;;10.37;;
13040;SDS011;6587;42.728;23.288;2023-02-12T00:22:41;17.97;;;9.20;;
13040;SDS011;6587;42.728;23.288;2023-02-12T00:25:10;18.17;;;9.63;;
13040;SDS011;6587;42.728;23.288;2023-02-12T00:27:38;19.00;;;9.97;;
13040;SDS011;6587;42.728;23.288;2023-02-12T00:30:05;16.47;;;9.47;;
13040;SDS011;6587;42.728;23.288;2023-02-12T00:32:33;13.77;;;8.27;;
13040;SDS011;6587;42.728;23.288;2023-02-12T00:35:01;13.03;;;7.33;;
13040;SDS011;6587;42.728;23.288;2023-02-12T00:37:28;13.20;;;8.17;;
13040;SDS011;6587;42.728;23.288;2023-02-12T00:39:56;14.63;;;8.30;;
13040;SDS011;6587;42.728;23.288;2023-02-12T00:42:24;18.03;;;8.93;;
13040;SDS011;6587;42.728;23.288;2023-02-12T00:44:51;18.40;;;9.20;;
13040;SDS011;6587;42.728;23.288;2023-02-12T00:47:18;14.50;;;8.53;;
13040;SDS011;6587;42.728;23.288;2023-02-12T00:49:48;16.97;;;8.93;;
13040;SDS011;6587;42.728;23.288;2023-02-12T00:52:15;15.07;;;8.90;;
13040;SDS011;6587;42.728;23.288;2023-02-12T00:54:42;17.67;;;8.87;;
13040;SDS011;6587;42.728;23.288;2023-02-12T00:57:09;19.27;;;10.10;;
13040;SDS011;6587;42.728;23.288;2023-02-12T00:59:38;13.17;;;8.63;;
13040;SDS011;6587;42.728;23.288;2023-02-12T01:02:06;15.87;;;8.73;;
13040;SDS011;6587;42.728;23.288;2023-02-12T01:04:33;14.00;;;8.80;;
13040;SDS011;6587;42.728;23.288;2023-02-12T01:07:00;17.83;;;9.40;;
13040;SDS011;6587;42.728;23.288;2023-02-12T01:09:28;16.40;;;9.53;;
13040;SDS011;6587;42.728;23.288;2023-02-12T01:11:55;18.77;;;9.50;;
13040;SDS011;6587;42.728;23.288;2023-02-12T01:14:22;17.53;;;9.83;;
13040;SDS011;6587;42.728;23.288;2023-02-12T01:16:50;17.87;;;9.97;;
13040;SDS011;6587;42.728;23.288;2023-02-12T01:19:17;16.87;;;10.17;;
13040;SDS011;6587;42.728;23.288;2023-02-12T01:21:45;17.33;;;9.80;;
13040;SDS011;6587;42.728;23.288;2023-02-12T01:24:12;13.53;;;9.10;;
13040;SDS011;6587;42.728;23.288;2023-02-12T01:26:39;17.70;;;9.40;;
13040;SDS011;6587;42.728;23.288;2023-02-12T01:29:06;17.97;;;10.50;;
13040;SDS011;6587;42.728;23.288;2023-02-12T01:31:35;18.43;;;10.63;;
13040;SDS011;6587;42.728;23.288;2023-02-12T01:34:05;20.33;;;10.83;;
13040;SDS011;6587;42.728;23.288;2023-02-12T01:36:33;16.97;;;11.00;;
13040;SDS011;6587;42.728;23.288;2023-02-12T01:39:00;18.93;;;10.47;;
13040;SDS011;6587;42.728;23.288;2023-02-12T01:41:29;15.60;;;10.90;;
13040;SDS011;6587;42.728;23.288;2023-02-12T01:44:07;18.87;;;10.87;;
13040;SDS011;6587;42.728;23.288;2023-02-12T01:46:37;20.37;;;11.60;;
13040;SDS011;6587;42.728;23.288;2023-02-12T01:49:06;18.50;;;11.87;;
13040;SDS011;6587;42.728;23.288;2023-02-12T01:51:36;21.93;;;12.50;;
13040;SDS011;6587;42.728;23.288;2023-02-12T01:54:06;21.23;;;12.00;;
13040;SDS011;6587;42.728;23.288;2023-02-12T01:56:36;21.43;;;12.13;;
13040;SDS011;6587;42.728;23.288;2023-02-12T01:59:03;28.00;;;13.07;;
13040;SDS011;6587;42.728;23.288;2023-02-12T02:01:31;21.90;;;12.30;;
13040;SDS011;6587;42.728;23.288;2023-02-12T02:04:00;26.00;;;14.30;;
13040;SDS011;6587;42.728;23.288;2023-02-12T02:06:33;22.93;;;13.00;;
13040;SDS011;6587;42.728;23.288;2023-02-12T02:09:02;22.33;;;13.27;;
13040;SDS011;6587;42.728;23.288;2023-02-12T02:11:31;25.23;;;13.93;;
13040;SDS011;6587;42.728;23.288;2023-02-12T02:14:16;26.37;;;13.60;;
13040;SDS011;6587;42.728;23.288;2023-02-12T02:23:09;26.40;;;14.50;;
13040;SDS011;6587;42.728;23.288;2023-02-12T02:26:01;25.23;;;13.43;;
13040;SDS011;6587;42.728;23.288;2023-02-12T02:28:47;26.00;;;15.30;;
13040;SDS011;6587;42.728;23.288;2023-02-12T02:31:36;25.33;;;14.87;;
13040;SDS011;6587;42.728;23.288;2023-02-12T02:34:09;29.43;;;15.10;;
13040;SDS011;6587;42.728;23.288;2023-02-12T02:36:43;25.40;;;13.70;;
13040;SDS011;6587;42.728;23.288;2023-02-12T02:39:14;23.43;;;14.53;;
13040;SDS011;6587;42.728;23.288;2023-02-12T02:41:50;29.20;;;15.70;;
13040;SDS011;6587;42.728;23.288;2023-02-12T02:44:25;27.63;;;16.40;;
13040;SDS011;6587;42.728;23.288;2023-02-12T02:46:59;30.90;;;16.43;;
13040;SDS011;6587;42.728;23.288;2023-02-12T02:49:32;23.90;;;14.93;;
13040;SDS011;6587;42.728;23.288;2023-02-12T02:52:06;28.30;;;15.43;;
13040;SDS011;6587;42.728;23.288;2023-02-12T02:54:38;28.03;;;15.70;;
13040;SDS011;6587;42.728;23.288;2023-02-12T02:57:10;31.87;;;16.73;;
13040;SDS011;6587;42.728;23.288;2023-02-12T02:59:41;27.50;;;16.73;;
13040;SDS011;6587;42.728;23.288;2023-02-12T03:02:14;32.13;;;18.57;;
13040;SDS011;6587;42.728;23.288;2023-02-12T03:04:47;31.17;;;17.43;;
13040;SDS011;6587;42.728;23.288;2023-02-12T03:07:18;33.53;;;19.03;;
13040;SDS011;6587;42.728;23.288;2023-02-12T03:09:51;32.50;;;17.60;;
13040;SDS011;6587;42.728;23.288;2023-02-12T03:12:24;25.83;;;16.17;;
13040;SDS011;6587;42.728;23.288;2023-02-12T03:14:58;24.83;;;14.30;;
13040;SDS011;6587;42.728;23.288;2023-02-12T03:17:30;27.53;;;14.20;;
13040;SDS011;6587;42.728;23.288;2023-02-12T03:20:02;29.57;;;16.47;;
13040;SDS011;6587;42.728;23.288;2023-02-12T03:22:35;28.20;;;15.97;;
13040;SDS011;6587;42.728;23.288;2023-02-12T03:25:06;36.53;;;18.17;;
13040;SDS011;6587;42.728;23.288;2023-02-12T03:27:40;43.87;;;20.10;;
13040;SDS011;6587;42.728;23.288;2023-02-12T03:30:09;29.07;;;14.93;;
13040;SDS011;6587;42.728;23.288;2023-02-12T03:32:41;37.47;;;16.87;;
13040;SDS011;6587;42.728;23.288;2023-02-12T03:35:13;38.40;;;19.50;;
13040;SDS011;6587;42.728;23.288;2023-02-12T03:37:46;20.70;;;12.40;;
13040;SDS011;6587;42.728;23.288;2023-02-12T03:40:25;20.80;;;11.73;;
13040;SDS011;6587;42.728;23.288;2023-02-12T03:42:57;22.13;;;12.10;;
13040;SDS011;6587;42.728;23.288;2023-02-12T03:45:31;23.50;;;12.17;;
13040;SDS011;6587;42.728;23.288;2023-02-12T03:48:09;21.07;;;12.60;;
13040;SDS011;6587;42.728;23.288;2023-02-12T03:50:43;19.87;;;11.93;;
13040;SDS011;6587;42.728;23.288;2023-02-12T03:53:16;21.97;;;13.37;;
13040;SDS011;6587;42.728;23.288;2023-02-12T03:55:44;20.93;;;11.60;;
13040;SDS011;6587;42.728;23.288;2023-02-12T03:58:15;21.93;;;13.50;;
13040;SDS011;6587;42.728;23.288;2023-02-12T04:00:46;25.73;;;13.93;;
13040;SDS011;6587;42.728;23.288;2023-02-12T04:03:15;18.37;;;11.87;;
13040;SDS011;6587;42.728;23.288;2023-02-12T04:05:42;25.53;;;13.03;;
13040;SDS011;6587;42.728;23.288;2023-02-12T04:08:09;25.60;;;13.57;;
13040;SDS011;6587;42.728;23.288;2023-02-12T04:10:41;21.33;;;12.83;;
13040;SDS011;6587;42.728;23.288;2023-02-12T04:13:20;23.43;;;13.40;;
13040;SDS011;6587;42.728;23.288;2023-02-12T04:15:58;30.70;;;16.80;;
13040;SDS011;6587;42.728;23.288;2023-02-12T04:18:33;41.50;;;19.37;;
13040;SDS011;6587;42.728;23.288;2023-02-12T04:21:07;31.37;;;15.47;;
13040;SDS011;6587;42.728;23.288;2023-02-12T04:23:49;36.47;;;15.70;;
13040;SDS011;6587;42.728;23.288;2023-02-12T04:26:30;28.93;;;15.57;;
13040;SDS011;6587;42.728;23.288;2023-02-12T04:29:05;25.97;;;15.77;;
13040;SDS011;6587;42.728;23.288;2023-02-12T04:31:42;30.00;;;14.70;;
13040;SDS011;6587;42.728;23.288;2023-02-12T04:34:14;25.07;;;14.40;;
13040;SDS011;6587;42.728;23.288;2023-02-12T04:36:48;25.70;;;14.43;;
13040;SDS011;6587;42.728;23.288;2023-02-12T04:39:20;25.60;;;14.77;;
13040;SDS011;6587;42.728;23.288;2023-02-12T04:41:51;27.33;;;14.87;;
13040;SDS011;6587;42.728;23.288;2023-02-12T04:44:18;26.40;;;15.73;;
13040;SDS011;6587;42.728;23.288;2023-02-12T04:46:49;29.53;;;16.83;;
13040;SDS011;6587;42.728;23.288;2023-02-12T04:49:18;25.43;;;15.17;;
13040;SDS011;6587;42.728;23.288;2023-02-12T04:51:47;28.73;;;15.90;;
13040;SDS011;6587;42.728;23.288;2023-02-12T04:54:15;28.23;;;14.93;;
13040;SDS011;6587;42.728;23.288;2023-02-12T04:56:43;22.90;;;13.57;;
13040;SDS011;6587;42.728;23.288;2023-02-12T04:59:11;28.60;;;14.43;;
13040;SDS011;6587;42.728;23.288;2023-02-12T05:01:39;24.47;;;13.53;;
13040;SDS011;6587;42.728;23.288;2023-02-12T05:04:07;22.40;;;12.67;;
13040;SDS011;6587;42.728;23.288;2023-02-12T05:06:37;22.20;;;11.80;;
13040;SDS011;6587;42.728;23.288;2023-02-12T05:09:05;21.90;;;12.03;;
13040;SDS011;6587;42.728;23.288;2023-02-12T05:11:33;19.87;;;12.17;;
13040;SDS011;6587;42.728;23.288;2023-02-12T05:14:00;27.33;;;13.50;;
13040;SDS011;6587;42.728;23.288;2023-02-12T05:16:27;20.00;;;12.00;;
13040;SDS011;6587;42.728;23.288;2023-02-12T05:18:54;16.00;;;9.60;;
13040;SDS011;6587;42.728;23.288;2023-02-12T05:21:21;19.97;;;10.33;;
13040;SDS011;6587;42.728;23.288;2023-02-12T05:23:49;23.33;;;11.87;;
13040;SDS011;6587;42.728;23.288;2023-02-12T05:26:16;21.30;;;11.43;;
13040;SDS011;6587;42.728;23.288;2023-02-12T05:28:45;18.03;;;11.13;;
13040;SDS011;6587;42.728;23.288;2023-02-12T05:31:12;13.07;;;8.60;;
13040;SDS011;6587;42.728;23.288;2023-02-12T05:33:41;20.60;;;11.23;;
13040;SDS011;6587;42.728;23.288;2023-02-12T05:36:09;20.57;;;10.93;;
13040;SDS011;6587;42.728;23.288;2023-02-12T05:38:37;23.80;;;11.93;;
13040;SDS011;6587;42.728;23.288;2023-02-12T05:41:07;23.37;;;13.07;;
13040;SDS011;6587;42.728;23.288;2023-02-12T05:43:35;22.93;;;12.70;;
13040;SDS011;6587;42.728;23.288;2023-02-12T05:46:04;24.73;;;13.87;;
13040;SDS011;6587;42.728;23.288;2023-02-12T05:48:32;22.90;;;12.90;;
13040;SDS011;6587;42.728;23.288;2023-02-12T05:51:02;21.80;;;12.50;;
13040;SDS011;6587;42.728;23.288;2023-02-12T05:53:31;30.23;;;15.47;;
13040;SDS011;6587;42.728;23.288;2023-02-12T05:58:42;19.97;;;12.27;;
13040;SDS011;6587;42.728;23.288;2023-02-12T06:01:12;27.70;;;15.53;;
13040;SDS011;6587;42.728;23.288;2023-02-12T06:03:40;26.37;;;14.07;;
13040;SDS011;6587;42.728;23.288;2023-02-12T06:06:07;26.73;;;13.23;;
13040;SDS011;6587;42.728;23.288;2023-02-12T06:08:34;26.43;;;13.50;;
13040;SDS011;6587;42.728;23.288;2023-02-12T06:11:01;19.70;;;11.43;;
13040;SDS011;6587;42.728;23.288;2023-02-12T06:13:30;23.70;;;14.17;;
13040;SDS011;6587;42.728;23.288;2023-02-12T06:15:58;34.87;;;17.67;;
13040;SDS011;6587;42.728;23.288;2023-02-12T06:18:25;23.77;;;13.67;;
13040;SDS011;6587;42.728;23.288;2023-02-12T06:20:53;21.60;;;11.73;;
13040;SDS011;6587;42.728;23.288;2023-02-12T06:23:20;18.60;;;10.33;;
13040;SDS011;6587;42.728;23.288;2023-02-12T06:25:47;16.30;;;10.43;;
13040;SDS011;6587;42.728;23.288;2023-02-12T06:28:14;21.90;;;13.43;;
13040;SDS011;6587;42.728;23.288;2023-02-12T06:30:42;24.43;;;12.90;;
13040;SDS011;6587;42.728;23.288;2023-02-12T06:33:09;22.60;;;13.07;;
13040;SDS011;6587;42.728;23.288;2023-02-12T06:35:38;19.63;;;10.50;;
13040;SDS011;6587;42.728;23.288;2023-02-12T06:38:08;22.03;;;11.30;;
13040;SDS011;6587;42.728;23.288;2023-02-12T06:40:35;21.17;;;11.17;;
13040;SDS011;6587;42.728;23.288;2023-02-12T06:43:02;22.37;;;12.90;;
13040;SDS011;6587;42.728;23.288;2023-02-12T06:45:32;25.70;;;14.47;;
13040;SDS011;6587;42.728;23.288;2023-02-12T06:48:00;23.83;;;13.23;;
13040;SDS011;6587;42.728;23.288;2023-02-12T06:50:27;28.27;;;16.17;;
13040;SDS011;6587;42.728;23.288;2023-02-12T06:52:56;28.53;;;15.60;;
13040;SDS011;6587;42.728;23.288;2023-02-12T06:55:24;23.70;;;14.57;;
13040;SDS011;6587;42.728;23.288;2023-02-12T06:57:51;23.70;;;13.60;;
13040;SDS011;6587;42.728;23.288;2023-02-12T07:00:18;25.10;;;14.27;;
13040;SDS011;6587;42.728;23.288;2023-02-12T07:02:51;29.57;;;15.20;;
13040;SDS011;6587;42.728;23.288;2023-02-12T07:05:20;22.03;;;12.67;;
13040;SDS011;6587;42.728;23.288;2023-02-12T07:07:48;21.70;;;11.33;;
13040;SDS011;6587;42.728;23.288;2023-02-12T07:10:15;23.53;;;12.60;;
13040;SDS011;6587;42.728;23.288;2023-02-12T07:12:42;18.40;;;11.27;;
13040;SDS011;6587;42.728;23.288;2023-02-12T07:15:09;21.00;;;11.83;;
13040;SDS011;6587;42.728;23.288;2023-02-12T07:17:36;22.73;;;11.97;;
13040;SDS011;6587;42.728;23.288;2023-02-12T07:20:04;24.47;;;12.13;;
13040;SDS011;6587;42.728;23.288;2023-02-12T07:22:35;16.60;;;10.80;;
13040;SDS011;6587;42.728;23.288;2023-02-12T07:25:02;19.67;;;10.77;;
13040;SDS011;6587;42.728;23.288;2023-02-12T07:27:30;20.13;;;12.67;;
13040;SDS011;6587;42.728;23.288;2023-02-12T07:29:56;22.67;;;12.87;;
13040;SDS011;6587;42.728;23.288;2023-02-12T07:32:23;22.50;;;12.20;;
13040;SDS011;6587;42.728;23.288;2023-02-12T07:34:50;17.70;;;10.50;;
13040;SDS011;6587;42.728;23.288;2023-02-12T07:37:17;19.27;;;12.27;;
13040;SDS011;6587;42.728;23.288;2023-02-12T07:39:48;22.27;;;11.67;;
13040;SDS011;6587;42.728;23.288;2023-02-12T07:42:15;19.93;;;11.67;;
13040;SDS011;6587;42.728;23.288;2023-02-12T07:44:47;22.57;;;11.87;;
13040;SDS011;6587;42.728;23.288;2023-02-12T07:47:14;22.90;;;13.40;;
13040;SDS011;6587;42.728;23.288;2023-02-12T07:49:42;28.87;;;16.37;;
13040;SDS011;6587;42.728;23.288;2023-02-12T07:52:08;30.60;;;16.10;;
13040;SDS011;6587;42.728;23.288;2023-02-12T07:54:35;32.27;;;16.97;;
13040;SDS011;6587;42.728;23.288;2023-02-12T07:57:03;24.40;;;14.00;;
13040;SDS011;6587;42.728;23.288;2023-02-12T07:59:32;26.00;;;14.47;;
13040;SDS011;6587;42.728;23.288;2023-02-12T08:01:59;21.33;;;12.97;;
13040;SDS011;6587;42.728;23.288;2023-02-12T08:04:27;27.00;;;15.53;;
13040;SDS011;6587;42.728;23.288;2023-02-12T08:06:54;24.10;;;14.10;;
13040;SDS011;6587;42.728;23.288;2023-02-12T08:09:22;26.77;;;14.77;;
13040;SDS011;6587;42.728;23.288;2023-02-12T08:11:50;38.37;;;18.83;;
13040;SDS011;6587;42.728;23.288;2023-02-12T08:14:19;31.83;;;16.00;;
13040;SDS011;6587;42.728;23.288;2023-02-12T08:16:48;26.27;;;14.10;;
13040;SDS011;6587;42.728;23.288;2023-02-12T08:19:16;27.93;;;14.60;;
13040;SDS011;6587;42.728;23.288;2023-02-12T08:21:44;31.57;;;17.63;;
13040;SDS011;6587;42.728;23.288;2023-02-12T08:24:11;38.37;;;19.63;;
13040;SDS011;6587;42.728;23.288;2023-02-12T08:26:38;35.07;;;16.83;;
13040;SDS011;6587;42.728;23.288;2023-02-12T08:29:07;25.17;;;15.47;;
13040;SDS011;6587;42.728;23.288;2023-02-12T08:31:37;44.27;;;21.27;;
13040;SDS011;6587;42.728;23.288;2023-02-12T08:34:05;36.37;;;18.50;;
13040;SDS011;6587;42.728;23.288;2023-02-12T08:36:34;31.23;;;16.47;;
13040;SDS011;6587;42.728;23.288;2023-02-12T08:39:03;26.17;;;14.73;;
13040;SDS011;6587;42.728;23.288;2023-02-12T08:41:30;26.00;;;15.70;;
13040;SDS011;6587;42.728;23.288;2023-02-12T08:43:59;32.93;;;16.80;;
13040;SDS011;6587;42.728;23.288;2023-02-12T08:46:28;30.93;;;16.43;;
13040;SDS011;6587;42.728;23.288;2023-02-12T08:48:58;30.30;;;16.40;;
13040;SDS011;6587;42.728;23.288;2023-02-12T08:51:27;24.77;;;15.33;;
13040;SDS011;6587;42.728;23.288;2023-02-12T08:53:56;31.13;;;17.07;;
13040;SDS011;6587;42.728;23.288;2023-02-12T08:56:25;26.27;;;14.13;;
13040;SDS011;6587;42.728;23.288;2023-02-12T08:58:54;35.33;;;17.23;;
13040;SDS011;6587;42.728;23.288;2023-02-12T09:01:23;25.70;;;16.17;;
13040;SDS011;6587;42.728;23.288;2023-02-12T09:03:51;34.33;;;17.60;;
13040;SDS011;6587;42.728;23.288;2023-02-12T09:06:20;32.93;;;19.00;;
13040;SDS011;6587;42.728;23.288;2023-02-12T09:08:49;30.73;;;16.70;;
13040;SDS011;6587;42.728;23.288;2023-02-12T09:11:16;28.67;;;15.67;;
13040;SDS011;6587;42.728;23.288;2023-02-12T09:13:45;30.93;;;17.40;;
13040;SDS011;6587;42.728;23.288;2023-02-12T09:16:15;31.20;;;16.00;;
13040;SDS011;6587;42.728;23.288;2023-02-12T09:18:42;28.83;;;16.07;;
13040;SDS011;6587;42.728;23.288;2023-02-12T09:21:11;29.53;;;15.33;;
13040;SDS011;6587;42.728;23.288;2023-02-12T09:23:42;24.73;;;13.47;;
13040;SDS011;6587;42.728;23.288;2023-02-12T09:26:10;28.43;;;15.20;;
13040;SDS011;6587;42.728;23.288;2023-02-12T09:28:39;29.57;;;17.10;;
13040;SDS011;6587;42.728;23.288;2023-02-12T09:31:07;31.60;;;17.73;;
13040;SDS011;6587;42.728;23.288;2023-02-12T09:33:35;36.27;;;17.93;;
13040;SDS011;6587;42.728;23.288;2023-02-12T09:36:02;33.83;;;19.83;;
13040;SDS011;6587;42.728;23.288;2023-02-12T09:38:30;24.70;;;13.77;;
13040;SDS011;6587;42.728;23.288;2023-02-12T09:41:04;38.53;;;16.43;;
13040;SDS011;6587;42.728;23.288;2023-02-12T09:43:48;31.70;;;17.30;;
13040;SDS011;6587;42.728;23.288;2023-02-12T09:46:20;30.57;;;16.40;;
13040;SDS011;6587;42.728;23.288;2023-02-12T09:48:54;33.07;;;17.00;;
13040;SDS011;6587;42.728;23.288;2023-02-12T09:51:26;28.53;;;15.63;;
13040;SDS011;6587;42.728;23.288;2023-02-12T09:53:59;28.10;;;15.00;;
13040;SDS011;6587;42.728;23.288;2023-02-12T09:56:29;32.47;;;17.07;;
13040;SDS011;6587;42.728;23.288;2023-02-12T09:58:58;34.90;;;17.00;;
13040;SDS011;6587;42.728;23.288;2023-02-12T10:01:27;34.87;;;17.93;;
13040;SDS011;6587;42.728;23.288;2023-02-12T10:03:55;32.00;;;17.23;;
13040;SDS011;6587;42.728;23.288;2023-02-12T10:06:23;30.87;;;15.83;;
13040;SDS011;6587;42.728;23.288;2023-02-12T10:08:58;30.13;;;17.10;;
13040;SDS011;6587;42.728;23.288;2023-02-12T10:11:38;28.37;;;14.57;;
13040;SDS011;6587;42.728;23.288;2023-02-12T10:17:26;31.90;;;18.00;;
13040;SDS011;6587;42.728;23.288;2023-02-12T10:20:03;40.63;;;20.43;;
13040;SDS011;6587;42.728;23.288;2023-02-12T10:22:49;38.27;;;21.60;;
13040;SDS011;6587;42.728;23.288;2023-02-12T10:25:26;35.93;;;18.47;;
13040;SDS011;6587;42.728;23.288;2023-02-12T10:28:01;41.57;;;20.70;;
13040;SDS011;6587;42.728;23.288;2023-02-12T10:30:36;33.93;;;18.00;;
13040;SDS011;6587;42.728;23.288;2023-02-12T10:33:11;37.27;;;19.33;;
13040;SDS011;6587;42.728;23.288;2023-02-12T10:35:42;43.23;;;20.73;;
13040;SDS011;6587;42.728;23.288;2023-02-12T10:38:15;40.53;;;20.17;;
13040;SDS011;6587;42.728;23.288;2023-02-12T10:40:45;35.73;;;19.03;;
13040;SDS011;6587;42.728;23.288;2023-02-12T10:43:15;29.80;;;17.77;;
13040;SDS011;6587;42.728;23.288;2023-02-12T10:45:42;38.60;;;20.87;;
13040;SDS011;6587;42.728;23.288;2023-02-12T10:48:10;34.50;;;19.00;;
13040;SDS011;6587;42.728;23.288;2023-02-12T10:50:46;34.63;;;18.57;;
13040;SDS011;6587;42.728;23.288;2023-02-12T10:53:20;41.17;;;20.67;;
13040;SDS011;6587;42.728;23.288;2023-02-12T10:55:48;35.57;;;20.03;;
13040;SDS011;6587;42.728;23.288;2023-02-12T10:58:19;34.73;;;19.10;;
13040;SDS011;6587;42.728;23.288;2023-02-12T11:00:54;36.07;;;19.63;;
13040;SDS011;6587;42.728;23.288;2023-02-12T11:03:22;39.90;;;19.17;;
13040;SDS011;6587;42.728;23.288;2023-02-12T11:05:54;32.63;;;17.97;;
13040;SDS011;6587;42.728;23.288;2023-02-12T11:08:27;34.23;;;20.17;;
13040;SDS011;6587;42.728;23.288;2023-02-12T11:11:01;36.47;;;20.97;;
13040;SDS011;6587;42.728;23.288;2023-02-12T11:13:33;33.13;;;17.73;;
13040;SDS011;6587;42.728;23.288;2023-02-12T11:16:01;39.10;;;19.50;;
13040;SDS011;6587;42.728;23.288;2023-02-12T11:18:29;40.57;;;20.73;;
13040;SDS011;6587;42.728;23.288;2023-02-12T11:20:59;30.53;;;18.53;;
13040;SDS011;6587;42.728;23.288;2023-02-12T11:23:28;32.00;;;18.67;;
13040;SDS011;6587;42.728;23.288;2023-02-12T11:25:58;34.47;;;18.37;;
13040;SDS011;6587;42.728;23.288;2023-02-12T11:28:27;33.50;;;18.73;;
13040;SDS011;6587;42.728;23.288;2023-02-12T11:30:57;40.27;;;21.70;;
13040;SDS011;6587;42.728;23.288;2023-02-12T11:33:31;33.17;;;19.27;;
13040;SDS011;6587;42.728;23.288;2023-02-12T11:36:01;34.57;;;19.53;;
13040;SDS011;6587;42.728;23.288;2023-02-12T11:38:31;32.70;;;20.10;;
13040;SDS011;6587;42.728;23.288;2023-02-12T11:41:08;37.00;;;20.40;;
13040;SDS011;6587;42.728;23.288;2023-02-12T11:43:49;33.30;;;18.60;;
13040;SDS011;6587;42.728;23.288;2023-02-12T11:46:19;29.33;;;18.03;;
13040;SDS011;6587;42.728;23.288;2023-02-12T11:48:49;29.37;;;17.30;;
13040;SDS011;6587;42.728;23.288;2023-02-12T11:51:18;29.43;;;17.50;;
13040;SDS011;6587;42.728;23.288;2023-02-12T11:53:47;33.87;;;18.90;;
13040;SDS011;6587;42.728;23.288;2023-02-12T11:56:16;34.27;;;20.63;;
13040;SDS011;6587;42.728;23.288;2023-02-12T11:58:44;31.90;;;18.77;;
13040;SDS011;6587;42.728;23.288;2023-02-12T12:01:13;37.33;;;20.57;;
13040;SDS011;6587;42.728;23.288;2023-02-12T12:03:48;29.50;;;18.13;;
13040;SDS011;6587;42.728;23.288;2023-02-12T12:09:09;29.70;;;17.67;;
13040;SDS011;6587;42.728;23.288;2023-02-12T12:11:46;31.43;;;18.93;;
13040;SDS011;6587;42.728;23.288;2023-02-12T12:14:21;33.77;;;20.07;;
13040;SDS011;6587;42.728;23.288;2023-02-12T12:16:54;37.37;;;21.03;;
13040;SDS011;6587;42.728;23.288;2023-02-12T12:19:46;36.83;;;19.90;;
13040;SDS011;6587;42.728;23.288;2023-02-12T12:22:35;34.50;;;19.93;;
13040;SDS011;6587;42.728;23.288;2023-02-12T12:27:54;29.37;;;17.80;;
13040;SDS011;6587;42.728;23.288;2023-02-12T12:30:36;35.33;;;19.87;;
13040;SDS011;6587;42.728;23.288;2023-02-12T12:33:18;44.93;;;23.70;;
13040;SDS011;6587;42.728;23.288;2023-02-12T12:35:56;31.33;;;18.60;;
13040;SDS011;6587;42.728;23.288;2023-02-12T12:38:39;32.77;;;18.63;;
13040;SDS011;6587;42.728;23.288;2023-02-12T12:41:15;36.80;;;19.93;;
13040;SDS011;6587;42.728;23.288;2023-02-12T12:43:54;32.53;;;18.67;;
13040;SDS011;6587;42.728;23.288;2023-02-12T12:46:38;31.57;;;18.77;;
13040;SDS011;6587;42.728;23.288;2023-02-12T12:49:20;33.33;;;19.90;;
13040;SDS011;6587;42.728;23.288;2023-02-12T12:52:02;38.37;;;21.37;;
13040;SDS011;6587;42.728;23.288;2023-02-12T12:54:47;31.73;;;19.17;;
13040;SDS011;6587;42.728;23.288;2023-02-12T12:57:30;33.73;;;18.83;;
13040;SDS011;6587;42.728;23.288;2023-02-12T13:00:14;29.10;;;18.63;;
13040;SDS011;6587;42.728;23.288;2023-02-12T13:03:03;30.30;;;17.13;;
13040;SDS011;6587;42.728;23.288;2023-02-12T13:08:58;29.07;;;16.47;;
13040;SDS011;6587;42.728;23.288;2023-02-12T13:11:38;35.07;;;19.93;;
13040;SDS011;6587;42.728;23.288;2023-02-12T13:14:19;28.67;;;17.30;;
13040;SDS011;6587;42.728;23.288;2023-02-12T13:16:58;29.57;;;17.67;;
13040;SDS011;6587;42.728;23.288;2023-02-12T13:19:33;30.90;;;18.37;;
13040;SDS011;6587;42.728;23.288;2023-02-12T13:22:12;32.10;;;19.40;;
13040;SDS011;6587;42.728;23.288;2023-02-12T13:24:49;31.50;;;17.73;;
13040;SDS011;6587;42.728;23.288;2023-02-12T13:27:24;31.83;;;19.37;;
13040;SDS011;6587;42.728;23.288;2023-02-12T13:29:57;31.40;;;17.17;;
13040;SDS011;6587;42.728;23.288;2023-02-12T13:32:30;41.07;;;23.30;;
13040;SDS011;6587;42.728;23.288;2023-02-12T13:35:00;31.63;;;17.93;;
13040;SDS011;6587;42.728;23.288;2023-02-12T13:37:34;32.97;;;19.33;;
13040;SDS011;6587;42.728;23.288;2023-02-12T13:40:06;31.13;;;18.10;;
13040;SDS011;6587;42.728;23.288;2023-02-12T13:42:38;35.33;;;19.20;;
13040;SDS011;6587;42.728;23.288;2023-02-12T13:45:15;32.93;;;18.40;;
13040;SDS011;6587;42.728;23.288;2023-02-12T13:47:52;35.80;;;19.00;;
13040;SDS011;6587;42.728;23.288;2023-02-12T13:50:33;33.00;;;20.60;;
13040;SDS011;6587;42.728;23.288;2023-02-12T13:53:14;32.40;;;17.93;;
13040;SDS011;6587;42.728;23.288;2023-02-12T13:55:55;29.93;;;17.70;;
13040;SDS011;6587;42.728;23.288;2023-02-12T13:58:39;29.23;;;17.73;;
13040;SDS011;6587;42.728;23.288;2023-02-12T14:01:35;27.63;;;16.80;;
13040;SDS011;6587;42.728;23.288;2023-02-12T14:04:20;33.73;;;18.23;;
13040;SDS011;6587;42.728;23.288;2023-02-12T14:06:53;31.57;;;18.67;;
13040;SDS011;6587;42.728;23.288;2023-02-12T14:09:23;32.43;;;18.50;;
13040;SDS011;6587;42.728;23.288;2023-02-12T14:11:57;35.60;;;19.30;;
13040;SDS011;6587;42.728;23.288;2023-02-12T14:14:27;38.97;;;21.33;;
13040;SDS011;6587;42.728;23.288;2023-02-12T14:16:56;42.70;;;21.50;;
13040;SDS011;6587;42.728;23.288;2023-02-12T14:19:36;35.37;;;20.70;;
13040;SDS011;6587;42.728;23.288;2023-02-12T14:25:29;34.93;;;20.60;;
13040;SDS011;6587;42.728;23.288;2023-02-12T14:28:16;40.60;;;23.33;;
13040;SDS011;6587;42.728;23.288;2023-02-12T14:33:49;36.87;;;20.00;;
13040;SDS011;6587;42.728;23.288;2023-02-12T14:36:18;32.13;;;19.87;;
13040;SDS011;6587;42.728;23.288;2023-02-12T14:39:07;40.37;;;20.53;;
13040;SDS011;6587;42.728;23.288;2023-02-12T14:41:54;35.20;;;21.13;;
13040;SDS011;6587;42.728;23.288;2023-02-12T14:44:46;40.37;;;22.33;;
13040;SDS011;6587;42.728;23.288;2023-02-12T14:53:22;39.97;;;22.50;;
13040;SDS011;6587;42.728;23.288;2023-02-12T14:55:54;46.43;;;24.53;;
13040;SDS011;6587;42.728;23.288;2023-02-12T14:58:22;48.13;;;26.37;;
13040;SDS011;6587;42.728;23.288;2023-02-12T15:00:54;56.43;;;31.17;;
13040;SDS011;6587;42.728;23.288;2023-02-12T15:03:24;62.10;;;33.53;;
13040;SDS011;6587;42.728;23.288;2023-02-12T15:05:58;71.00;;;35.93;;
13040;SDS011;6587;42.728;23.288;2023-02-12T15:08:31;57.60;;;31.80;;
13040;SDS011;6587;42.728;23.288;2023-02-12T15:11:25;44.83;;;25.73;;
13040;SDS011;6587;42.728;23.288;2023-02-12T15:14:00;52.53;;;28.37;;
13040;SDS011;6587;42.728;23.288;2023-02-12T15:16:33;45.83;;;25.93;;
13040;SDS011;6587;42.728;23.288;2023-02-12T15:19:11;42.07;;;24.77;;
13040;SDS011;6587;42.728;23.288;2023-02-12T15:21:45;42.63;;;23.63;;